Dades meteomassalio
Diari Summary for Noviembre 26, 2017 Units:  Metric    English   Both
« Previous Day
Next Day »
Diari Semanal Mensual Anual Personalitzat
  Maxima: Minima: Mijana:
Temperatura: -17.8 °C -17.2 °C -13.6 °C
Rosada: -17.8 °C -19.6 °C -17.3 °C
Humitat: Humidity % 47 % 62 %
Velocitat del vent: 0 km/h 9 km/h 39.7 km/h
Racha vent: 0 km/h - -
Vent:- - WNW
Pressio: 0 hPa 34818.2 hPa -
Pluja: 0 mm    
Historical Graphs
 
 
Tabular Data for Noviembre 26, 2017
Time Temperature Dew Point Pressure Wind Wind Speed Wind Gust Humidity Rainfall Rate (Hourly) solar Conditions
-17.8 °C -17.8 °C 0 hPa Calm     Humidity % 0 mm SolarRadiationWatts/m^2 W/m2 Conditions
00:02 -13.4 °C -17.6 °C 34818.2 hPa NNW 68.6 km/h 68.6 km/h 59 % 0 mm 0.0 W/m2 CLR
00:07 -13.4 °C -17.6 °C 34818.2 hPa NW 50.7 km/h 50.7 km/h 59 % 0 mm 0.0 W/m2 CLR
00:12 -13.4 °C -17.6 °C 34818.2 hPa NW 53.6 km/h 53.6 km/h 59 % 0 mm 0.0 W/m2 CLR
00:17 -13.4 °C -17.8 °C 34818.2 hPa NW 62.6 km/h 62.6 km/h 58 % 0 mm 0.0 W/m2 CLR
00:22 -13.8 °C -18.1 °C 34818.2 hPa WNW 56.6 km/h 56.6 km/h 58 % 0 mm 0.0 W/m2 CLR
00:27 -13.8 °C -18.1 °C 34818.2 hPa NW 47.6 km/h 47.6 km/h 58 % 0 mm 0.0 W/m2 CLR
00:32 -13.8 °C -17.9 °C 34831.8 hPa NNW 50.7 km/h 50.7 km/h 59 % 0 mm 0.0 W/m2 CLR
00:37 -13.8 °C -17.9 °C 34831.8 hPa NNW 38.8 km/h 38.8 km/h 59 % 0 mm 0.0 W/m2 CLR
00:42 -13.8 °C -17.9 °C 34831.8 hPa NW 47.6 km/h 47.6 km/h 59 % 0 mm 0.0 W/m2 CLR
00:47 -13.8 °C -17.8 °C 34831.8 hPa NW 50.7 km/h 50.7 km/h 60 % 0 mm 0.0 W/m2 CLR
00:52 -13.8 °C -17.8 °C 34831.8 hPa NNW 26.9 km/h 26.9 km/h 60 % 0 mm 0.0 W/m2 CLR
00:57 -13.8 °C -17.7 °C 34831.8 hPa NW 32.8 km/h 32.8 km/h 61 % 0 mm 0.0 W/m2 CLR
01:02 -13.8 °C -17.7 °C 34841.9 hPa NNW 36.2 km/h 36.2 km/h 61 % 0 mm 0.0 W/m2 CLR
01:07 -14.1 °C -17.9 °C 34841.9 hPa NW 28.5 km/h 28.5 km/h 61 % 0 mm 0.0 W/m2 CLR
01:12 -14.1 °C -17.8 °C 34841.9 hPa WNW 26.9 km/h 26.9 km/h 62 % 0 mm 0.0 W/m2 CLR
01:17 -14.1 °C -17.8 °C 34841.9 hPa NW 47.6 km/h 47.6 km/h 62 % 0 mm 0.0 W/m2 CLR
01:22 -13.8 °C -17.6 °C 34841.9 hPa WNW 38.8 km/h 38.8 km/h 62 % 0 mm 0.0 W/m2 CLR
01:27 -14.1 °C -17.8 °C 34841.9 hPa WNW 35.7 km/h 35.7 km/h 62 % 0 mm 0.0 W/m2 CLR
01:32 -14.1 °C -17.8 °C 34841.9 hPa NW 50.7 km/h 50.7 km/h 62 % 0 mm 0.0 W/m2 CLR
01:37 -14.1 °C -17.7 °C 34841.9 hPa NW 35.7 km/h 35.7 km/h 63 % 0 mm 0.0 W/m2 CLR
01:42 -14.1 °C -17.7 °C 34841.9 hPa WNW 50.7 km/h 50.7 km/h 63 % 0 mm 0.0 W/m2 CLR
01:47 -14.1 °C -17.7 °C 34841.9 hPa NW 41.7 km/h 41.7 km/h 63 % 0 mm 0.0 W/m2 CLR
01:52 -14.1 °C -17.6 °C 34841.9 hPa NW 38.8 km/h 38.8 km/h 64 % 0 mm 0.0 W/m2 CLR
02:02 -14.1 °C -17.6 °C 34841.9 hPa WNW 38.8 km/h 38.8 km/h 64 % 0 mm 0.0 W/m2 CLR
02:07 -14.1 °C -17.6 °C 34852.1 hPa WNW 29.8 km/h 29.8 km/h 64 % 0 mm 0.0 W/m2 CLR
02:12 -14.1 °C -17.4 °C 34852.1 hPa WNW 35.7 km/h 35.7 km/h 65 % 0 mm 0.0 W/m2 CLR
02:17 -14.1 °C -17.4 °C 34852.1 hPa NW 35.7 km/h 35.7 km/h 65 % 0 mm 0.0 W/m2 CLR
02:22 -14.1 °C -17.4 °C 34852.1 hPa NW 50.7 km/h 50.7 km/h 65 % 0 mm 0.0 W/m2 CLR
02:27 -14.1 °C -17.4 °C 34852.1 hPa NW 38.8 km/h 38.8 km/h 65 % 0 mm 0.0 W/m2 CLR
02:32 -14.1 °C -17.4 °C 34852.1 hPa WNW 32.8 km/h 32.8 km/h 65 % 0 mm 0.0 W/m2 CLR
02:37 -14.1 °C -17.4 °C 34852.1 hPa WNW 29.8 km/h 29.8 km/h 65 % 0 mm 0.0 W/m2 CLR
02:42 -14.1 °C -17.3 °C 34852.1 hPa NW 44.7 km/h 44.7 km/h 66 % 0 mm 0.0 W/m2 CLR
02:48 -14.1 °C -17.3 °C 34865.6 hPa WNW 38.8 km/h 38.8 km/h 66 % 0 mm 0.0 W/m2 CLR
02:53 -14.1 °C -17.3 °C 34852.1 hPa NW 36.2 km/h 36.2 km/h 66 % 0 mm 0.0 W/m2 CLR
02:58 -14.1 °C -17.3 °C 34852.1 hPa WNW 44.7 km/h 44.7 km/h 66 % 0 mm 0.0 W/m2 CLR
03:03 -14.1 °C -17.3 °C 34852.1 hPa WNW 44.7 km/h 44.7 km/h 66 % 0 mm 0.0 W/m2 CLR
03:08 -14.4 °C -17.7 °C 34865.6 hPa NW 38.8 km/h 38.8 km/h 66 % 0 mm 0.0 W/m2 CLR
03:13 -14.4 °C -17.7 °C 34852.1 hPa WNW 29.8 km/h 34.1 km/h 66 % 0 mm 0.0 W/m2 CLR
03:18 -14.4 °C -17.6 °C 34852.1 hPa NW 56.6 km/h 56.6 km/h 67 % 0 mm 0.0 W/m2 CLR
03:23 -14.1 °C -17.3 °C 34852.1 hPa NW 51.8 km/h 51.8 km/h 66 % 0 mm 0.0 W/m2 CLR
03:28 -14.1 °C -17.3 °C 34852.1 hPa NW 44.7 km/h 44.7 km/h 66 % 0 mm 0.0 W/m2 CLR
03:33 -14.1 °C -17.3 °C 34852.1 hPa NW 54.4 km/h 54.4 km/h 67 % 0 mm 0.0 W/m2 CLR
03:38 -14.1 °C -17.3 °C 34852.1 hPa NW 47.6 km/h 47.6 km/h 66 % 0 mm 0.0 W/m2 CLR
03:43 -14.1 °C -17.3 °C 34852.1 hPa NW 53.6 km/h 53.6 km/h 66 % 0 mm 0.0 W/m2 CLR
03:48 -14.1 °C -17.3 °C 34852.1 hPa NW 53.6 km/h 53.6 km/h 66 % 0 mm 0.0 W/m2 CLR
03:53 -14.1 °C -17.3 °C 34852.1 hPa NW 50.7 km/h 50.7 km/h 66 % 0 mm 0.0 W/m2 CLR
03:58 -14.1 °C -17.3 °C 34852.1 hPa NW 50.7 km/h 50.7 km/h 66 % 0 mm 0.0 W/m2 CLR
04:03 -14.1 °C -17.3 °C 34852.1 hPa NW 50.7 km/h 50.7 km/h 67 % 0 mm 0.0 W/m2 CLR
04:08 -14.1 °C -17.3 °C 34852.1 hPa WNW 53.6 km/h 53.6 km/h 66 % 0 mm 0.0 W/m2 CLR
04:13 -14.1 °C -17.3 °C 34852.1 hPa NW 50.7 km/h 50.7 km/h 66 % 0 mm 0.0 W/m2 CLR
04:18 -14.1 °C -17.3 °C 34852.1 hPa WNW 50.7 km/h 50.7 km/h 66 % 0 mm 0.0 W/m2 CLR
04:23 -14.1 °C -17.3 °C 34852.1 hPa West 50.7 km/h 50.7 km/h 66 % 0 mm 0.0 W/m2 CLR
04:28 -14.1 °C -17.3 °C 34852.1 hPa WNW 38.8 km/h 38.8 km/h 66 % 0 mm 0.0 W/m2 CLR
04:33 -14.4 °C -17.7 °C 34852.1 hPa WNW 29.8 km/h 29.8 km/h 66 % 0 mm 0.0 W/m2 CLR
04:38 -14.4 °C -17.7 °C 34852.1 hPa NW 33.6 km/h 33.6 km/h 66 % 0 mm 0.0 W/m2 CLR
04:43 -14.4 °C -17.6 °C 34852.1 hPa NW 41.7 km/h 41.7 km/h 67 % 0 mm 0.0 W/m2 CLR
04:48 -14.4 °C -17.6 °C 34852.1 hPa NW 41.4 km/h 41.4 km/h 67 % 0 mm 0.0 W/m2 CLR
04:53 -14.4 °C -17.6 °C 34852.1 hPa NW 50.7 km/h 50.7 km/h 67 % 0 mm 0.0 W/m2 CLR
04:58 -14.4 °C -17.6 °C 34852.1 hPa NW 44.7 km/h 44.7 km/h 67 % 0 mm 0.0 W/m2 CLR
05:03 -14.4 °C -17.6 °C 34852.1 hPa WNW 50.7 km/h 50.7 km/h 67 % 0 mm 0.0 W/m2 CLR
05:08 -14.4 °C -17.6 °C 34865.6 hPa NW 50.7 km/h 50.7 km/h 67 % 0 mm 0.0 W/m2 CLR
05:13 -14.1 °C -17.3 °C 34865.6 hPa WNW 38.8 km/h 38.8 km/h 67 % 0 mm 0.0 W/m2 CLR
05:18 -14.4 °C -17.6 °C 34865.6 hPa NW 47.6 km/h 47.6 km/h 67 % 0 mm 0.0 W/m2 CLR
05:28 -14.1 °C -17.3 °C 34852.1 hPa NNW 50.7 km/h 50.7 km/h 67 % 0 mm 0.0 W/m2 CLR
05:33 -14.4 °C -17.6 °C 34852.1 hPa NW 26.9 km/h 26.9 km/h 67 % 0 mm 0.0 W/m2 CLR
05:38 -14.4 °C -17.6 °C 34865.6 hPa NW 44.7 km/h 44.7 km/h 67 % 0 mm 0.0 W/m2 CLR
05:43 -14.4 °C -17.6 °C 34865.6 hPa NW 57 km/h 57 km/h 67 % 0 mm 0.0 W/m2 CLR
05:44 -14.4 °C -17.4 °C 34865.6 hPa NW 62.6 km/h 62.6 km/h 68 % 0 mm 0.0 W/m2 CLR
05:49 -14.4 °C -17.4 °C 34865.6 hPa WNW 35.7 km/h 35.7 km/h 68 % 0 mm 0.0 W/m2 CLR
05:54 -14.4 °C -17.4 °C 34865.6 hPa NW 26.9 km/h 26.9 km/h 68 % 0 mm 0.0 W/m2 CLR
05:59 -14.4 °C -17.4 °C 34875.8 hPa NNW 50.7 km/h 50.7 km/h 68 % 0 mm 0.0 W/m2 CLR
06:04 -14.4 °C -17.4 °C 34875.8 hPa NW 49.2 km/h 49.2 km/h 68 % 0 mm 0.0 W/m2 CLR
06:09 -14.4 °C -17.4 °C 34865.6 hPa NW 56.6 km/h 56.6 km/h 68 % 0 mm 0.0 W/m2 CLR
06:14 -14.4 °C -17.4 °C 34875.8 hPa NW 41.7 km/h 41.7 km/h 68 % 0 mm 0.0 W/m2 CLR
06:19 -14.4 °C -17.4 °C 34875.8 hPa NW 38.8 km/h 38.8 km/h 68 % 0 mm 0.0 W/m2 CLR
06:24 -14.4 °C -17.3 °C 34875.8 hPa NW 32.8 km/h 32.8 km/h 69 % 0 mm 0.0 W/m2 CLR
06:29 -14.4 °C -17.3 °C 34875.8 hPa NW 56.6 km/h 56.6 km/h 69 % 0 mm 0.0 W/m2 CLR
06:34 -14.4 °C -17.3 °C 34875.8 hPa NW 44.7 km/h 44.7 km/h 69 % 0 mm 0.0 W/m2 CLR
06:39 -14.4 °C -17.3 °C 34875.8 hPa WNW 62.6 km/h 62.6 km/h 69 % 0 mm 0.0 W/m2 CLR
06:44 -14.4 °C -17.3 °C 34875.8 hPa NW 41.7 km/h 41.7 km/h 69 % 0 mm 0.0 W/m2 CLR
06:49 -14.4 °C -17.3 °C 34865.6 hPa WNW 62.1 km/h 62.1 km/h 69 % 0 mm 0.0 W/m2 CLR
06:54 -14.4 °C -17.3 °C 34875.8 hPa NW 56.6 km/h 56.6 km/h 69 % 0 mm 0.0 W/m2 CLR
06:59 -14.4 °C -17.3 °C 34875.8 hPa NW 38.8 km/h 38.8 km/h 69 % 0 mm 0.0 W/m2 CLR
07:04 -14.4 °C -17.3 °C 34875.8 hPa WNW 44.7 km/h 44.7 km/h 69 % 0 mm 0.0 W/m2 CLR
07:09 -14.4 °C -17.3 °C 34875.8 hPa NW 32.8 km/h 32.8 km/h 69 % 0 mm 0.0 W/m2 CLR
07:14 -14.4 °C -17.3 °C 34875.8 hPa West 26.9 km/h 26.9 km/h 69 % 0 mm 0.0 W/m2 CLR
07:19 -14.4 °C -17.3 °C 34889.3 hPa NW 47.6 km/h 47.6 km/h 69 % 0 mm 0.0 W/m2 CLR
07:24 -14.4 °C -17.2 °C 34889.3 hPa NW 53.6 km/h 53.6 km/h 70 % 0 mm 0.0 W/m2 CLR
07:29 -14.4 °C -17.2 °C 34889.3 hPa NW 54.4 km/h 54.4 km/h 70 % 0 mm 0.0 W/m2 CLR
07:34 -14.4 °C -17.2 °C 34889.3 hPa NW 41.4 km/h 41.4 km/h 70 % 0 mm 0.0 W/m2 CLR
07:44 -14.4 °C -17.2 °C 34899.5 hPa NW 46.7 km/h 46.7 km/h 70 % 0 mm 0.0 W/m2 CLR
07:49 -14.7 °C -17.5 °C 34899.5 hPa NNW 41.7 km/h 41.7 km/h 70 % 0 mm 0.0 W/m2 OVC
07:54 -14.4 °C -17.2 °C 34899.5 hPa NW 32.8 km/h 32.8 km/h 70 % 0 mm 0.0 W/m2 OVC
07:59 -14.4 °C -17.2 °C 34899.5 hPa NW 41.7 km/h 41.7 km/h 70 % 0 mm 5.0 W/m2 OVC
08:04 -14.4 °C -17.2 °C 34909.7 hPa NW 47.6 km/h 47.6 km/h 70 % 0 mm 7.0 W/m2 OVC
08:09 -14.7 °C -17.4 °C 34909.7 hPa NW 38.8 km/h 38.8 km/h 71 % 0 mm 9.0 W/m2 BKN
08:14 -14.7 °C -17.5 °C 34909.7 hPa WNW 35.7 km/h 35.7 km/h 70 % 0 mm 11.0 W/m2 BKN
08:19 -14.7 °C -17.4 °C 34923.2 hPa NW 33.6 km/h 33.6 km/h 71 % 0 mm 12.0 W/m2 BKN
08:24 -14.7 °C -17.4 °C 34923.2 hPa NNW 38.8 km/h 38.8 km/h 71 % 0 mm 16.0 W/m2 BKN
08:29 -14.7 °C -17.4 °C 34923.2 hPa NNW 38.8 km/h 38.8 km/h 71 % 0 mm 19.0 W/m2 BKN
08:34 -14.4 °C -17.2 °C 34923.2 hPa NNW 44.7 km/h 44.7 km/h 70 % 0 mm 26.0 W/m2 BKN
08:39 -14.4 °C -17.2 °C 34933.4 hPa NW 33.6 km/h 33.6 km/h 70 % 0 mm 39.0 W/m2 BKN
08:44 -14.4 °C -17.2 °C 34933.4 hPa WNW 32.8 km/h 32.8 km/h 70 % 0 mm 47.0 W/m2 SCT
08:49 -14.4 °C -17.2 °C 34946.9 hPa WNW 32.8 km/h 32.8 km/h 70 % 0 mm 56.0 W/m2 SCT
08:54 -14.4 °C -17.2 °C 34946.9 hPa NW 29.8 km/h 29.8 km/h 70 % 0 mm 72.0 W/m2 FEW
08:59 -14.4 °C -17.3 °C 34933.4 hPa NNW 38.8 km/h 38.8 km/h 69 % 0 mm 84.0 W/m2 FEW
09:04 -14.1 °C -17 °C 34946.9 hPa WNW 46.7 km/h 46.7 km/h 69 % 0 mm 90.0 W/m2 FEW
09:09 -14.1 °C -17 °C 34946.9 hPa NNW 44.7 km/h 44.7 km/h 69 % 0 mm 113.0 W/m2 CLR
09:14 -14.1 °C -17.1 °C 34946.9 hPa NW 35.7 km/h 35.7 km/h 68 % 0 mm 125.0 W/m2 CLR
09:19 -14.1 °C -17.1 °C 34957.1 hPa NW 32.8 km/h 32.8 km/h 68 % 0 mm 128.0 W/m2 CLR
09:24 -14.1 °C -17.3 °C 34946.9 hPa NNW 49.2 km/h 49.2 km/h 67 % 0 mm 148.0 W/m2 CLR
09:29 -13.8 °C -16.9 °C 34957.1 hPa NW 44.7 km/h 44.7 km/h 67 % 0 mm 153.0 W/m2 CLR
09:34 -13.8 °C -17.1 °C 34957.1 hPa NW 41.7 km/h 41.7 km/h 66 % 0 mm 141.0 W/m2 CLR
09:39 -13.8 °C -17.1 °C 34957.1 hPa NNW 44.7 km/h 44.7 km/h 66 % 0 mm 141.0 W/m2 CLR
09:44 -13.4 °C -16.9 °C 34967.2 hPa NW 50.7 km/h 50.7 km/h 65 % 0 mm 151.0 W/m2 CLR
09:49 -13.4 °C -16.9 °C 34967.2 hPa NNW 59.5 km/h 59.5 km/h 65 % 0 mm 199.0 W/m2 CLR
09:54 -13.4 °C -16.9 °C 34967.2 hPa NNW 53.6 km/h 53.6 km/h 65 % 0 mm 221.0 W/m2 CLR
09:59 -13.2 °C -16.6 °C 34967.2 hPa North 53.6 km/h 53.6 km/h 65 % 0 mm 251.0 W/m2 CLR
10:04 -13.2 °C -16.7 °C 34967.2 hPa NNW 50.7 km/h 50.7 km/h 64 % 0 mm 265.0 W/m2 CLR
10:09 -13.2 °C -16.7 °C 34957.1 hPa NW 32.8 km/h 32.8 km/h 64 % 0 mm 276.0 W/m2 CLR
10:14 -13.2 °C -16.8 °C 34967.2 hPa NNW 65.5 km/h 65.5 km/h 63 % 0 mm 288.0 W/m2 CLR
10:19 -13.2 °C -16.8 °C 34967.2 hPa NNW 62.1 km/h 62.1 km/h 63 % 0 mm 297.0 W/m2 CLR
10:24 -13.2 °C -16.8 °C 34967.2 hPa NNW 50.7 km/h 50.7 km/h 63 % 0 mm 308.0 W/m2 CLR
10:25 -13.2 °C -16.8 °C 34967.2 hPa NNW 50.7 km/h 50.7 km/h 63 % 0 mm 308.0 W/m2 CLR
10:30 -12.8 °C -16.6 °C 34967.2 hPa North 56.6 km/h 56.6 km/h 63 % 0 mm 318.0 W/m2 CLR
10:35 -12.8 °C -16.6 °C 34967.2 hPa NNW 50.7 km/h 50.7 km/h 63 % 0 mm 329.0 W/m2 CLR
10:40 -12.8 °C -16.7 °C 34967.2 hPa NW 32.8 km/h 32.8 km/h 62 % 0 mm 338.0 W/m2 CLR
10:45 -12.8 °C -16.8 °C 34967.2 hPa NNW 50.7 km/h 50.7 km/h 61 % 0 mm 350.0 W/m2 CLR
10:50 -12.6 °C -16.5 °C 34967.2 hPa North 38.8 km/h 38.8 km/h 61 % 0 mm 362.0 W/m2 CLR
10:55 -12.6 °C -16.6 °C 34967.2 hPa NW 47.6 km/h 47.6 km/h 60 % 0 mm 369.0 W/m2 CLR
11:00 -12.6 °C -16.6 °C 34967.2 hPa NNW 41.7 km/h 41.7 km/h 60 % 0 mm 378.0 W/m2 CLR
11:05 -12.2 °C -16.5 °C 34980.8 hPa North 47.6 km/h 47.6 km/h 59 % 0 mm 401.0 W/m2 CLR
11:10 -12.2 °C -16.3 °C 34980.8 hPa WNW 50.7 km/h 50.7 km/h 60 % 0 mm 397.0 W/m2 CLR
11:15 -12.2 °C -16.3 °C 34980.8 hPa North 44.7 km/h 44.7 km/h 60 % 0 mm 406.0 W/m2 CLR
11:20 -12.2 °C -16.3 °C 34980.8 hPa NNW 36.2 km/h 36.2 km/h 60 % 0 mm 429.0 W/m2 CLR
11:25 -12.2 °C -16.5 °C 34990.9 hPa North 56.6 km/h 56.6 km/h 59 % 0 mm 432.0 W/m2 CLR
11:30 -11.9 °C -16.3 °C 34990.9 hPa NNW 67.3 km/h 67.3 km/h 58 % 0 mm 469.0 W/m2 CLR
11:35 -12.2 °C -16.6 °C 34990.9 hPa North 59.5 km/h 59.5 km/h 58 % 0 mm 489.0 W/m2 CLR
11:40 -11.9 °C -16.3 °C 34990.9 hPa North 53.6 km/h 53.6 km/h 58 % 0 mm 130.0 W/m2 CLR
11:45 -11.9 °C -16.3 °C 34980.8 hPa North 53.6 km/h 53.6 km/h 58 % 0 mm 508.0 W/m2 CLR
11:50 -11.9 °C -16.4 °C 34980.8 hPa NNW 49.2 km/h 49.2 km/h 57 % 0 mm 497.0 W/m2 CLR
11:55 -11.6 °C -16.4 °C 34980.8 hPa North 59.5 km/h 59.5 km/h 55 % 0 mm 394.0 W/m2 CLR
12:00 -11.6 °C -16.3 °C 34980.8 hPa NNE 44.7 km/h 44.7 km/h 56 % 0 mm 555.0 W/m2 CLR
12:05 -11.9 °C -16.7 °C 34980.8 hPa North 44.1 km/h 44.1 km/h 55 % 0 mm 536.0 W/m2 CLR
12:10 -11.9 °C -16.7 °C 34980.8 hPa North 44.7 km/h 44.7 km/h 55 % 0 mm 123.0 W/m2 CLR
12:15 -12.2 °C -17 °C 34980.8 hPa North 56.6 km/h 56.6 km/h 55 % 0 mm 123.0 W/m2 CLR
12:20 -11.9 °C -16.7 °C 34980.8 hPa North 56.6 km/h 56.6 km/h 55 % 0 mm 111.0 W/m2 CLR
12:25 -11.9 °C -16.7 °C 34980.8 hPa NNW 50.7 km/h 50.7 km/h 55 % 0 mm 102.0 W/m2 CLR
12:30 -12.2 °C -16.9 °C 34980.8 hPa NNW 46.7 km/h 46.7 km/h 56 % 0 mm 84.0 W/m2 CLR
12:35 -12.2 °C -17 °C 34980.8 hPa NNW 50.7 km/h 50.7 km/h 55 % 0 mm 81.0 W/m2 CLR
12:40 -12.2 °C -17 °C 34967.2 hPa NNW 41.7 km/h 41.7 km/h 55 % 0 mm 84.0 W/m2 CLR
12:45 -12.2 °C -17.2 °C 34967.2 hPa North 44.7 km/h 44.7 km/h 54 % 0 mm 70.0 W/m2 FEW
12:50 -11.9 °C -16.9 °C 34967.2 hPa NW 38.8 km/h 38.8 km/h 54 % 0 mm 504.0 W/m2 CLR
12:55 -11.3 °C -16.6 °C 34967.2 hPa NNW 41.4 km/h 41.4 km/h 52 % 0 mm 522.0 W/m2 CLR
13:00 -11.3 °C -16.8 °C 34967.2 hPa NNW 38.8 km/h 38.8 km/h 51 % 0 mm 510.0 W/m2 CLR
13:05 -11.3 °C -17.1 °C 34967.2 hPa NNW 50.7 km/h 50.7 km/h 49 % 0 mm 489.0 W/m2 CLR
13:10 -11 °C -16.8 °C 34967.2 hPa NW 50.7 km/h 50.7 km/h 49 % 0 mm 483.0 W/m2 CLR
13:15 -11.3 °C -16.9 °C 34967.2 hPa North 59.5 km/h 59.5 km/h 50 % 0 mm 475.0 W/m2 CLR
13:20 -11.3 °C -16.9 °C 34967.2 hPa North 38.8 km/h 38.8 km/h 50 % 0 mm 480.0 W/m2 CLR
13:25 -11.3 °C -17.1 °C 34967.2 hPa North 53.6 km/h 53.6 km/h 49 % 0 mm 462.0 W/m2 CLR
13:30 -11.3 °C -17.2 °C 34957.1 hPa NNW 62.6 km/h 62.6 km/h 48 % 0 mm 454.0 W/m2 CLR
13:35 -11.3 °C -17.2 °C 34957.1 hPa NNW 44.7 km/h 44.7 km/h 48 % 0 mm 454.0 W/m2 CLR
13:40 -11.3 °C -17.2 °C 34957.1 hPa North 41.7 km/h 41.7 km/h 48 % 0 mm 475.0 W/m2 CLR
13:50 -11 °C -17.1 °C 34946.9 hPa NW 46.7 km/h 46.7 km/h 47 % 0 mm 478.0 W/m2 CLR
13:55 -11 °C -16.9 °C 34946.9 hPa NNW 44.7 km/h 44.7 km/h 48 % 0 mm 520.0 W/m2 CLR
14:00 -10.7 °C -16.8 °C 34946.9 hPa NW 53.6 km/h 53.6 km/h 47 % 0 mm 466.0 W/m2 CLR
14:05 -10.7 °C -16.8 °C 34946.9 hPa NW 47.6 km/h 47.6 km/h 47 % 0 mm 455.0 W/m2 CLR
14:10 -10.7 °C -16.6 °C 34946.9 hPa NW 29.8 km/h 29.8 km/h 48 % 0 mm 450.0 W/m2 CLR
14:15 -10.7 °C -16.8 °C 34957.1 hPa NW 56.6 km/h 56.6 km/h 47 % 0 mm 417.0 W/m2 CLR
14:20 -11 °C -16.9 °C 34946.9 hPa North 71.5 km/h 71.5 km/h 48 % 0 mm 424.0 W/m2 CLR
14:25 -11 °C -16.9 °C 34957.1 hPa North 53.6 km/h 53.6 km/h 48 % 0 mm 406.0 W/m2 CLR
14:30 -11 °C -17.1 °C 34946.9 hPa NW 50.7 km/h 50.7 km/h 47 % 0 mm 388.0 W/m2 CLR
14:35 -10.7 °C -16.8 °C 34946.9 hPa NNW 50.7 km/h 50.7 km/h 47 % 0 mm 394.0 W/m2 CLR
14:41 -10.7 °C -16.8 °C 34946.9 hPa NNW 49.2 km/h 49.2 km/h 47 % 0 mm 383.0 W/m2 CLR
14:46 -10.7 °C -16.8 °C 34946.9 hPa NW 44.7 km/h 44.7 km/h 47 % 0 mm 380.0 W/m2 CLR
14:51 -10.7 °C -16.8 °C 34946.9 hPa North 44.7 km/h 44.7 km/h 47 % 0 mm 355.0 W/m2 CLR
14:56 -11 °C -17.1 °C 34946.9 hPa NW 50.7 km/h 50.7 km/h 47 % 0 mm 346.0 W/m2 CLR
15:01 -11 °C -16.9 °C 34946.9 hPa NW 59.5 km/h 59.5 km/h 48 % 0 mm 334.0 W/m2 CLR
15:06 -11 °C -16.9 °C 34946.9 hPa NW 53.6 km/h 53.6 km/h 48 % 0 mm 322.0 W/m2 CLR
15:11 -11 °C -16.9 °C 34946.9 hPa NNW 44.7 km/h 44.7 km/h 48 % 0 mm 311.0 W/m2 CLR
15:16 -11 °C -17.1 °C 34946.9 hPa NNW 53.6 km/h 53.6 km/h 47 % 0 mm 302.0 W/m2 CLR
15:21 -11 °C -17.1 °C 34933.4 hPa NNW 68.6 km/h 68.6 km/h 47 % 0 mm 294.0 W/m2 CLR
15:26 -11.3 °C -17.2 °C 34946.9 hPa NW 44.7 km/h 44.7 km/h 48 % 0 mm 279.0 W/m2 CLR
15:31 -11 °C -16.9 °C 34946.9 hPa North 53.6 km/h 53.6 km/h 48 % 0 mm 267.0 W/m2 CLR
15:36 -11.3 °C -17.1 °C 34946.9 hPa NW 32.8 km/h 32.8 km/h 49 % 0 mm 257.0 W/m2 CLR
15:41 -11 °C -16.8 °C 34946.9 hPa North 50.7 km/h 50.7 km/h 49 % 0 mm 250.0 W/m2 CLR
15:46 -11.3 °C -17.1 °C 34946.9 hPa NNW 47.6 km/h 47.6 km/h 49 % 0 mm 234.0 W/m2 CLR
15:51 -11.3 °C -17.2 °C 34946.9 hPa North 59.5 km/h 59.5 km/h 48 % 0 mm 216.0 W/m2 CLR
15:56 -11.3 °C -17.1 °C 34957.1 hPa North 41.7 km/h 41.7 km/h 49 % 0 mm 209.0 W/m2 CLR
16:01 -11.6 °C -17.2 °C 34957.1 hPa North 53.6 km/h 53.6 km/h 50 % 0 mm 211.0 W/m2 CLR
16:02 -11.6 °C -17.2 °C 34957.1 hPa North 53.6 km/h 53.6 km/h 50 % 0 mm 207.0 W/m2 CLR
16:07 -11.6 °C -17.2 °C 34967.2 hPa North 50.7 km/h 50.7 km/h 50 % 0 mm 193.0 W/m2 CLR
16:17 -11.6 °C -17.1 °C 34957.1 hPa NNW 56.6 km/h 56.6 km/h 51 % 0 mm 144.0 W/m2 CLR
16:22 -11.6 °C -17.1 °C 34967.2 hPa NNW 47.6 km/h 47.6 km/h 51 % 0 mm 134.0 W/m2 CLR
16:24 -11.6 °C -17.1 °C 34967.2 hPa NNW 38.8 km/h 38.8 km/h 51 % 0 mm 130.0 W/m2 CLR
16:29 -11.6 °C -17.1 °C 34967.2 hPa North 44.7 km/h 44.7 km/h 51 % 0 mm 118.0 W/m2 CLR
16:39 -11.9 °C -17.2 °C 34957.1 hPa North 65.5 km/h 65.5 km/h 52 % 0 mm 83.0 W/m2 FEW
16:44 -11.9 °C -17.2 °C 34957.1 hPa North 46.7 km/h 46.7 km/h 52 % 0 mm 62.0 W/m2 FEW
16:49 -11.9 °C -17.2 °C 34957.1 hPa NNW 59.5 km/h 59.5 km/h 52 % 0 mm 56.0 W/m2 SCT
16:54 -11.9 °C -17 °C 34967.2 hPa NW 44.7 km/h 44.7 km/h 53 % 0 mm 42.0 W/m2 BKN
16:59 -12.2 °C -17.3 °C 34967.2 hPa NNW 38.8 km/h 38.8 km/h 53 % 0 mm 35.0 W/m2 BKN
17:04 -12.2 °C -17.3 °C 34967.2 hPa NW 32.8 km/h 32.8 km/h 53 % 0 mm 23.0 W/m2 BKN
17:09 -12.2 °C -17.2 °C 34967.2 hPa NNW 41.7 km/h 41.7 km/h 54 % 0 mm 16.0 W/m2 BKN
17:14 -12.6 °C -17.3 °C 34967.2 hPa NNW 44.7 km/h 44.7 km/h 55 % 0 mm 12.0 W/m2 BKN
17:19 -12.6 °C -17.2 °C 34967.2 hPa NNW 38.8 km/h 38.8 km/h 56 % 0 mm 11.0 W/m2 BKN
17:24 -12.6 °C -17.2 °C 34967.2 hPa NNW 29.8 km/h 31.5 km/h 56 % 0 mm 9.0 W/m2 BKN
17:29 -12.6 °C -17.1 °C 34967.2 hPa NNW 47.6 km/h 47.6 km/h 57 % 0 mm 7.0 W/m2 BKN
17:34 -12.6 °C -17.1 °C 34967.2 hPa NNW 23.8 km/h 23.8 km/h 57 % 0 mm 5.0 W/m2 OVC
17:39 -12.8 °C -17.3 °C 34967.2 hPa NW 29.8 km/h 29.8 km/h 57 % 0 mm 0.0 W/m2 OVC
17:45 -12.8 °C -17.2 °C 34967.2 hPa NNW 26.9 km/h 26.9 km/h 58 % 0 mm 0.0 W/m2 CLR
17:50 -12.8 °C -17.2 °C 34967.2 hPa NW 29.8 km/h 29.8 km/h 58 % 0 mm 0.0 W/m2 CLR
17:55 -12.8 °C -17.1 °C 34957.1 hPa NNW 29.8 km/h 29.8 km/h 59 % 0 mm 0.0 W/m2 CLR
18:00 -12.8 °C -16.9 °C 34957.1 hPa NNW 44.7 km/h 44.7 km/h 60 % 0 mm 0.0 W/m2 CLR
18:05 -12.8 °C -16.9 °C 34967.2 hPa NW 23.8 km/h 23.8 km/h 60 % 0 mm 0.0 W/m2 CLR
18:10 -12.8 °C -16.9 °C 34967.2 hPa WNW 26.9 km/h 26.9 km/h 60 % 0 mm 0.0 W/m2 CLR
18:15 -13.2 °C -17.1 °C 34967.2 hPa WNW 18.2 km/h 18.2 km/h 61 % 0 mm 0.0 W/m2 CLR
18:20 -13.2 °C -17.1 °C 34967.2 hPa NW 25.9 km/h 25.9 km/h 61 % 0 mm 0.0 W/m2 CLR
18:25 -13.2 °C -17.1 °C 34957.1 hPa NNW 41.4 km/h 41.4 km/h 61 % 0 mm 0.0 W/m2 CLR
18:30 -13.4 °C -17.4 °C 34957.1 hPa NW 35.7 km/h 35.7 km/h 61 % 0 mm 0.0 W/m2 CLR
18:35 -13.4 °C -17.4 °C 34967.2 hPa WNW 26.9 km/h 26.9 km/h 61 % 0 mm 0.0 W/m2 CLR
18:40 -13.2 °C -17 °C 34967.2 hPa WNW 23.8 km/h 23.8 km/h 62 % 0 mm 0.0 W/m2 CLR
18:45 -13.2 °C -17.1 °C 34967.2 hPa NNW 41.4 km/h 41.4 km/h 61 % 0 mm 0.0 W/m2 CLR
18:47 -13.4 °C -17.4 °C 34967.2 hPa NW 32.8 km/h 32.8 km/h 61 % 0 mm 0.0 W/m2 CLR
18:52 -13.4 °C -17.4 °C 34967.2 hPa NW 29.8 km/h 29.8 km/h 61 % 0 mm 0.0 W/m2 CLR
18:57 -13.4 °C -17.3 °C 34967.2 hPa NW 29.8 km/h 29.8 km/h 62 % 0 mm 0.0 W/m2 CLR
19:01 -13.4 °C -17.1 °C 34967.2 hPa NW 20.9 km/h 20.9 km/h 63 % 0 mm 0.0 W/m2 CLR
19:06 -13.4 °C -17.1 °C 34980.8 hPa WNW 23.8 km/h 23.8 km/h 63 % 0 mm 0.0 W/m2 CLR
19:11 -13.4 °C -17.1 °C 34980.8 hPa WNW 20.9 km/h 20.9 km/h 63 % 0 mm 0.0 W/m2 CLR
19:17 -13.8 °C -17.4 °C 34967.2 hPa WNW 10.3 km/h 10.3 km/h 63 % 0 mm 0.0 W/m2 CLR
19:22 -14.1 °C -17.7 °C 34980.8 hPa WNW 18.2 km/h 18.2 km/h 63 % 0 mm 0.0 W/m2 CLR
19:27 -14.1 °C -17.6 °C 34980.8 hPa WNW 29.8 km/h 29.8 km/h 64 % 0 mm 0.0 W/m2 CLR
19:32 -14.1 °C -17.4 °C 34980.8 hPa NW 26.9 km/h 26.9 km/h 65 % 0 mm 0.0 W/m2 CLR
19:37 -14.1 °C -17.6 °C 34980.8 hPa NW 32.8 km/h 32.8 km/h 64 % 0 mm 0.0 W/m2 CLR
19:42 -14.1 °C -17.6 °C 34980.8 hPa WNW 23.8 km/h 23.8 km/h 64 % 0 mm 0.0 W/m2 CLR
19:47 -13.8 °C -17.4 °C 34980.8 hPa WSW 11.9 km/h 11.9 km/h 63 % 0 mm 0.0 W/m2 CLR
19:52 -13.8 °C -17.2 °C 34980.8 hPa WSW 11.9 km/h 11.9 km/h 65 % 0 mm 0.0 W/m2 CLR
19:57 -13.8 °C -17.2 °C 34980.8 hPa West 20.9 km/h 20.9 km/h 65 % 0 mm 0.0 W/m2 CLR
20:02 -13.8 °C -17.1 °C 34980.8 hPa West 17.9 km/h 17.9 km/h 66 % 0 mm 0.0 W/m2 CLR
20:07 -13.8 °C -16.9 °C 34980.8 hPa WSW 18.2 km/h 18.2 km/h 67 % 0 mm 0.0 W/m2 CLR
20:12 -13.8 °C -16.9 °C 34980.8 hPa West 17.9 km/h 17.9 km/h 67 % 0 mm 0.0 W/m2 CLR
20:17 -14.1 °C -17.1 °C 34980.8 hPa West 17.9 km/h 17.9 km/h 68 % 0 mm 0.0 W/m2 CLR
20:22 -14.4 °C -17.4 °C 34980.8 hPa West 17.9 km/h 17.9 km/h 68 % 0 mm 0.0 W/m2 CLR
20:27 -14.4 °C -17.4 °C 34980.8 hPa West 20.9 km/h 20.9 km/h 68 % 0 mm 0.0 W/m2 CLR
20:32 -14.4 °C -17.3 °C 34980.8 hPa WSW 20.9 km/h 20.9 km/h 69 % 0 mm 0.0 W/m2 CLR
20:42 -15 °C -17.9 °C 34967.2 hPa NW 20.9 km/h 20.9 km/h 69 % 0 mm 0.0 W/m2 CLR
20:47 -15.3 °C -18.2 °C 34967.2 hPa WNW 23.8 km/h 23.8 km/h 69 % 0 mm 0.0 W/m2 CLR
20:57 -15.3 °C -18.2 °C 34980.8 hPa NW 26.9 km/h 26.9 km/h 69 % 0 mm 0.0 W/m2 CLR
21:02 -15.3 °C -18.3 °C 34980.8 hPa WNW 32.8 km/h 32.8 km/h 68 % 0 mm 0.0 W/m2 CLR
21:07 -15.6 °C -18.7 °C 34980.8 hPa West 29.8 km/h 29.8 km/h 67 % 0 mm 0.0 W/m2 CLR
21:12 -15.9 °C -19 °C 34980.8 hPa WSW 11.9 km/h 11.9 km/h 67 % 0 mm 0.0 W/m2 CLR
21:17 -15.6 °C -18.5 °C 34990.9 hPa WSW 11.9 km/h 11.9 km/h 69 % 0 mm 0.0 W/m2 CLR
21:22 -15.6 °C -18.4 °C 34990.9 hPa West 11.9 km/h 11.9 km/h 70 % 0 mm 0.0 W/m2 CLR
21:27 -15.6 °C -18.4 °C 34990.9 hPa WNW 15 km/h 15 km/h 70 % 0 mm 0.0 W/m2 CLR
21:32 -15.9 °C -18.6 °C 34990.9 hPa West 17.9 km/h 17.9 km/h 71 % 0 mm 0.0 W/m2 CLR
21:37 -15.9 °C -18.6 °C 34990.9 hPa West 15 km/h 15 km/h 71 % 0 mm 0.0 W/m2 CLR
21:38 -15.9 °C -18.6 °C 34990.9 hPa West 17.9 km/h 17.9 km/h 71 % 0 mm 0.0 W/m2 CLR
21:43 -15.9 °C -18.6 °C 34990.9 hPa WSW 18.2 km/h 18.2 km/h 71 % 0 mm 0.0 W/m2 CLR
21:48 -15.9 °C -18.6 °C 34990.9 hPa WSW 20.9 km/h 20.9 km/h 71 % 0 mm 0.0 W/m2 CLR
21:53 -15.3 °C -17.9 °C 34990.9 hPa West 26.9 km/h 26.9 km/h 72 % 0 mm 0.0 W/m2 CLR
21:54 -15 °C -17.7 °C 34990.9 hPa WSW 20.9 km/h 20.9 km/h 71 % 0 mm 0.0 W/m2 CLR
21:59 -15 °C -17.7 °C 35001.1 hPa West 20.9 km/h 20.9 km/h 71 % 0 mm 0.0 W/m2 CLR
22:04 -15 °C -17.7 °C 35001.1 hPa WSW 20.9 km/h 20.9 km/h 71 % 0 mm 0.0 W/m2 CLR
22:09 -14.7 °C -17.4 °C 35001.1 hPa West 26.9 km/h 26.9 km/h 71 % 0 mm 0.0 W/m2 CLR
22:14 -15 °C -17.7 °C 35001.1 hPa West 32.8 km/h 32.8 km/h 71 % 0 mm 0.0 W/m2 CLR
22:19 -15.3 °C -17.9 °C 35001.1 hPa West 23.8 km/h 23.8 km/h 71 % 0 mm 0.0 W/m2 CLR
22:24 -15.3 °C -17.9 °C 35001.1 hPa West 23.8 km/h 23.8 km/h 71 % 0 mm 0.0 W/m2 CLR
22:34 -15.6 °C -18.3 °C 35001.1 hPa WNW 20.9 km/h 20.9 km/h 71 % 0 mm 0.0 W/m2 CLR
22:39 -15.6 °C -18.3 °C 35001.1 hPa West 23.8 km/h 23.8 km/h 71 % 0 mm 0.0 W/m2 CLR
22:44 -15.9 °C -18.6 °C 35014.6 hPa West 17.9 km/h 17.9 km/h 71 % 0 mm 0.0 W/m2 CLR
22:49 -15.9 °C -18.6 °C 35014.6 hPa West 20.9 km/h 20.9 km/h 71 % 0 mm 0.0 W/m2 CLR
22:54 -16.2 °C -18.8 °C 35001.1 hPa West 29.8 km/h 29.8 km/h 72 % 0 mm 0.0 W/m2 CLR
22:59 -15.9 °C -18.4 °C 35014.6 hPa West 26.9 km/h 26.9 km/h 72 % 0 mm 0.0 W/m2 CLR
23:04 -15.3 °C -17.9 °C 35014.6 hPa West 26.9 km/h 26.9 km/h 72 % 0 mm 0.0 W/m2 CLR
23:09 -15.6 °C -18.3 °C 35014.6 hPa West 26.9 km/h 26.9 km/h 71 % 0 mm 0.0 W/m2 CLR
23:15 -15.6 °C -18.3 °C 35014.6 hPa West 15 km/h 15 km/h 71 % 0 mm 0.0 W/m2 CLR
23:20 -15.9 °C -18.4 °C 35014.6 hPa West 20.9 km/h 20.9 km/h 72 % 0 mm 0.0 W/m2 CLR
23:30 -16.6 °C -18.9 °C 35014.6 hPa West 20.9 km/h 20.9 km/h 73 % 0 mm 0.0 W/m2 CLR
23:35 -16.8 °C -19.3 °C 35014.6 hPa West 17.9 km/h 17.9 km/h 73 % 0 mm 0.0 W/m2 CLR
23:40 -16.8 °C -19.3 °C 35014.6 hPa West 18.2 km/h 18.2 km/h 73 % 0 mm 0.0 W/m2 CLR
23:45 -17.2 °C -19.6 °C 35014.6 hPa WSW 15 km/h 15 km/h 73 % 0 mm 0.0 W/m2 CLR
23:50 -17.2 °C -19.6 °C 35014.6 hPa West 11.9 km/h 11.9 km/h 73 % 0 mm 0.0 W/m2 CLR
23:55 -17.2 °C -19.4 °C 35014.6 hPa WSW 9 km/h 9 km/h 74 % 0 mm 0.0 W/m2 CLR
Lo Temps de Massalio
Compliments of Weather Underground - 1.25 mb